createdAt,value
2023-04-22T00:01:18.158Z,7.10
2023-04-22T00:03:45.578Z,7.63
2023-04-22T00:06:13.091Z,8.25
2023-04-22T00:08:40.228Z,11.18
2023-04-22T00:11:07.367Z,12.15
2023-04-22T00:13:34.604Z,8.20
2023-04-22T00:16:01.829Z,12.52
2023-04-22T00:18:29.057Z,8.77
2023-04-22T00:20:56.256Z,10.10
2023-04-22T00:23:23.496Z,9.02
2023-04-22T00:25:50.606Z,7.90
2023-04-22T00:28:17.771Z,8.40
2023-04-22T00:30:44.977Z,11.40
2023-04-22T00:33:12.197Z,8.75
2023-04-22T00:35:39.459Z,12.77
2023-04-22T00:38:06.807Z,7.07
2023-04-22T00:40:34.040Z,11.55
2023-04-22T00:43:01.222Z,10.70
2023-04-22T00:45:28.351Z,11.05
2023-04-22T00:47:55.728Z,8.77
2023-04-22T00:50:22.928Z,10.95
2023-04-22T00:52:50.654Z,11.32
2023-04-22T00:55:17.856Z,8.77
2023-04-22T00:57:45.337Z,10.10
2023-04-22T01:00:12.693Z,11.43
2023-04-22T01:02:40.164Z,10.40
2023-04-22T01:05:09.583Z,9.65
2023-04-22T01:07:37.034Z,7.55
2023-04-22T01:10:05.533Z,8.15
2023-04-22T01:12:32.848Z,9.75
2023-04-22T01:15:01.153Z,12.27
2023-04-22T01:17:31.951Z,13.20
2023-04-22T01:20:00.134Z,8.27
2023-04-22T01:22:27.903Z,12.18
2023-04-22T01:24:55.298Z,10.95
2023-04-22T01:27:22.611Z,8.82
2023-04-22T01:29:49.968Z,10.02
2023-04-22T01:32:17.319Z,9.20
2023-04-22T01:34:45.044Z,9.98
2023-04-22T01:37:12.223Z,11.15
2023-04-22T01:39:39.611Z,10.32
2023-04-22T01:42:07.284Z,12.88
2023-04-22T01:44:34.462Z,13.20
2023-04-22T01:47:01.619Z,7.35
2023-04-22T01:49:28.859Z,11.98
2023-04-22T01:51:55.985Z,7.93
2023-04-22T01:54:23.143Z,8.30
2023-04-22T01:56:51.949Z,8.70
2023-04-22T01:59:19.727Z,11.70
2023-04-22T02:01:46.919Z,9.60
2023-04-22T02:04:14.276Z,13.88
2023-04-22T02:06:41.539Z,10.35
2023-04-22T02:09:08.768Z,9.25
2023-04-22T02:11:35.913Z,12.70
2023-04-22T02:14:03.071Z,11.15
2023-04-22T02:16:30.374Z,9.38
2023-04-22T02:18:58.051Z,8.98
2023-04-22T02:21:25.235Z,8.95
2023-04-22T02:23:52.427Z,8.18
2023-04-22T02:26:19.671Z,9.63
2023-04-22T02:28:46.840Z,8.27
2023-04-22T02:31:14.079Z,12.20
2023-04-22T02:33:41.306Z,6.95
2023-04-22T02:36:08.614Z,11.85
2023-04-22T02:38:35.883Z,14.13
2023-04-22T02:41:03.085Z,9.80
2023-04-22T02:43:30.359Z,11.95
2023-04-22T02:45:57.491Z,9.93
2023-04-22T02:48:24.630Z,17.42
2023-04-22T02:50:51.776Z,8.00
2023-04-22T02:53:19.007Z,11.10
2023-04-22T02:55:46.484Z,14.70
2023-04-22T02:58:13.722Z,12.52
2023-04-22T03:00:40.973Z,10.43
2023-04-22T03:03:08.322Z,9.57
2023-04-22T03:05:35.570Z,10.85
2023-04-22T03:08:02.716Z,9.35
2023-04-22T03:10:29.936Z,13.50
2023-04-22T03:12:59.124Z,13.02
2023-04-22T03:15:26.311Z,10.48
2023-04-22T03:17:53.478Z,10.82
2023-04-22T03:20:21.145Z,7.13
2023-04-22T03:22:48.405Z,13.90
2023-04-22T03:25:15.935Z,11.48
2023-04-22T03:27:43.097Z,12.13
2023-04-22T03:30:10.374Z,10.13
2023-04-22T03:32:38.217Z,11.43
2023-04-22T03:35:05.846Z,15.70
2023-04-22T03:37:32.987Z,12.02
2023-04-22T03:40:00.181Z,10.63
2023-04-22T03:42:27.292Z,10.43
2023-04-22T03:44:54.417Z,12.73
2023-04-22T03:47:21.897Z,10.82
2023-04-22T03:49:49.202Z,9.13
2023-04-22T03:52:16.398Z,14.05
2023-04-22T03:54:43.631Z,9.40
2023-04-22T03:57:10.972Z,8.88
2023-04-22T03:59:38.448Z,11.70
2023-04-22T04:02:07.620Z,10.82
2023-04-22T04:04:35.294Z,9.55
2023-04-22T04:07:03.048Z,11.18
2023-04-22T04:09:30.469Z,16.15
2023-04-22T04:11:58.164Z,15.98
2023-04-22T04:14:25.606Z,14.38
2023-04-22T04:16:52.774Z,12.20
2023-04-22T04:19:19.952Z,15.25
2023-04-22T04:21:47.122Z,19.00
2023-04-22T04:24:14.277Z,8.65
2023-04-22T04:26:41.612Z,15.93
2023-04-22T04:29:08.958Z,9.45
2023-04-22T04:31:36.323Z,9.88
2023-04-22T04:34:03.580Z,11.80
2023-04-22T04:36:32.856Z,8.80
2023-04-22T04:39:00.072Z,11.90
2023-04-22T04:41:28.190Z,28.17
2023-04-22T04:43:55.395Z,15.75
2023-04-22T04:46:25.373Z,15.88
2023-04-22T04:48:54.075Z,16.52
2023-04-22T04:51:21.210Z,15.82
2023-04-22T04:53:48.379Z,15.70
2023-04-22T04:56:16.833Z,17.83
2023-04-22T04:58:43.973Z,22.83
2023-04-22T05:01:11.198Z,31.98
2023-04-22T05:03:38.597Z,21.83
2023-04-22T05:06:06.022Z,17.45
2023-04-22T05:08:33.206Z,16.52
2023-04-22T05:11:00.341Z,14.60
2023-04-22T05:13:27.878Z,14.55
2023-04-22T05:15:55.156Z,10.35
2023-04-22T05:18:22.845Z,11.52
2023-04-22T05:20:50.144Z,14.63
2023-04-22T05:23:17.423Z,6.38
2023-04-22T05:25:44.586Z,8.05
2023-04-22T05:28:11.732Z,6.07
2023-04-22T05:30:39.134Z,5.45
2023-04-22T05:33:08.435Z,4.38
2023-04-22T05:35:35.936Z,6.80
2023-04-22T05:38:03.388Z,3.42
2023-04-22T05:40:30.615Z,4.43
2023-04-22T05:42:58.334Z,6.78
2023-04-22T05:45:25.566Z,6.95
2023-04-22T05:47:52.845Z,6.25
2023-04-22T05:50:21.236Z,3.38
2023-04-22T05:52:49.954Z,5.22
2023-04-22T05:55:17.134Z,6.72
2023-04-22T05:57:44.344Z,7.50
2023-04-22T06:00:11.952Z,9.32
2023-04-22T06:02:39.331Z,13.65
2023-04-22T06:05:07.229Z,5.38
2023-04-22T06:07:34.656Z,9.25
2023-04-22T06:10:04.704Z,5.90
2023-04-22T06:12:33.753Z,9.07
2023-04-22T06:15:00.894Z,9.75
2023-04-22T06:17:28.283Z,17.45
2023-04-22T06:19:55.749Z,9.90
2023-04-22T06:22:25.683Z,3.90
2023-04-22T06:24:52.833Z,8.68
2023-04-22T06:27:20.099Z,8.48
2023-04-22T06:29:47.271Z,15.95
2023-04-22T06:32:14.517Z,7.50
2023-04-22T06:34:41.668Z,4.72
2023-04-22T06:37:08.927Z,8.80
2023-04-22T06:39:36.325Z,5.53
2023-04-22T06:42:03.559Z,10.55
2023-04-22T06:44:31.443Z,3.90
2023-04-22T06:46:58.764Z,5.85
2023-04-22T06:49:26.100Z,28.50
2023-04-22T06:51:53.281Z,35.03
2023-04-22T06:54:20.566Z,13.77
2023-04-22T06:56:47.790Z,21.30
2023-04-22T06:59:14.972Z,12.43
2023-04-22T07:01:42.186Z,7.70
2023-04-22T07:04:09.667Z,24.30
2023-04-22T07:06:36.961Z,26.42
2023-04-22T07:09:04.207Z,58.83
2023-04-22T07:11:34.284Z,20.10
2023-04-22T07:14:01.505Z,25.42
2023-04-22T07:16:28.935Z,34.75
2023-04-22T07:18:56.174Z,21.65
2023-04-22T07:21:23.641Z,10.20
2023-04-22T07:23:51.856Z,18.95
2023-04-22T07:26:19.414Z,21.45
2023-04-22T07:28:46.637Z,19.30
2023-04-22T07:31:16.882Z,21.00
2023-04-22T07:33:44.132Z,10.07
2023-04-22T07:36:11.335Z,11.27
2023-04-22T07:38:38.520Z,21.27
2023-04-22T07:41:05.731Z,35.67
2023-04-22T07:43:32.925Z,4.95
2023-04-22T07:46:00.200Z,10.18
2023-04-22T07:48:27.500Z,7.10
2023-04-22T07:50:54.608Z,9.65
2023-04-22T07:53:21.884Z,8.73
2023-04-22T07:55:49.806Z,2.63
2023-04-22T07:58:17.510Z,4.00
2023-04-22T08:00:44.865Z,2.47
2023-04-22T08:03:12.352Z,5.85
2023-04-22T08:05:39.631Z,2.40
2023-04-22T08:08:07.512Z,2.53
2023-04-22T08:10:34.905Z,6.50
2023-04-22T08:13:02.157Z,4.78
2023-04-22T08:15:29.635Z,2.42
2023-04-22T08:17:56.902Z,2.60
2023-04-22T08:20:24.193Z,6.10
2023-04-22T08:22:52.360Z,7.28
2023-04-22T08:25:20.192Z,2.10
2023-04-22T08:27:47.392Z,2.15
2023-04-22T08:30:14.964Z,2.58
2023-04-22T08:32:42.442Z,4.70
2023-04-22T08:35:09.834Z,1.75
2023-04-22T08:37:37.182Z,2.13
2023-04-22T08:40:04.833Z,4.78
2023-04-22T08:42:32.127Z,3.60
2023-04-22T08:44:59.311Z,2.15
2023-04-22T08:47:26.703Z,1.58
2023-04-22T08:49:56.071Z,3.65
2023-04-22T08:52:23.229Z,4.10
2023-04-22T08:54:50.458Z,3.17
2023-04-22T08:57:18.316Z,3.83
2023-04-22T08:59:45.898Z,2.33
2023-04-22T09:02:15.005Z,4.07
2023-04-22T09:04:43.328Z,3.25
2023-04-22T09:07:12.060Z,1.52
2023-04-22T09:09:39.654Z,2.38
2023-04-22T09:12:07.046Z,2.97
2023-04-22T09:14:34.657Z,3.38
2023-04-22T09:17:03.860Z,5.10
2023-04-22T09:19:30.987Z,3.00
2023-04-22T09:22:01.117Z,5.93
2023-04-22T09:24:28.282Z,5.03
2023-04-22T09:27:01.842Z,3.42
2023-04-22T09:29:32.117Z,4.82
2023-04-22T09:31:59.306Z,3.05
2023-04-22T09:34:28.170Z,3.45
2023-04-22T09:36:55.342Z,2.78
2023-04-22T09:39:24.187Z,3.22
2023-04-22T09:41:55.019Z,1.33
2023-04-22T09:44:22.133Z,1.42
2023-04-22T09:46:51.328Z,3.83
2023-04-22T09:49:18.595Z,5.50
2023-04-22T09:51:46.331Z,2.85
2023-04-22T09:54:14.484Z,3.35
2023-04-22T09:56:42.780Z,2.70
2023-04-22T09:59:10.436Z,2.25
2023-04-22T10:01:39.807Z,4.07
2023-04-22T10:04:08.159Z,1.95
2023-04-22T10:06:35.361Z,2.45
2023-04-22T10:09:03.207Z,3.30
2023-04-22T10:11:30.852Z,6.28
2023-04-22T10:13:58.445Z,2.25
2023-04-22T10:16:26.427Z,1.77
2023-04-22T10:18:56.826Z,1.42
2023-04-22T10:21:26.379Z,4.30
2023-04-22T10:23:54.128Z,5.75
2023-04-22T10:26:40.612Z,5.90
2023-04-22T10:29:17.232Z,1.88
2023-04-22T10:31:45.340Z,3.78
2023-04-22T10:34:13.919Z,1.85
2023-04-22T10:37:06.893Z,1.92
2023-04-22T10:39:34.148Z,2.70
2023-04-22T10:42:07.005Z,2.10
2023-04-22T10:44:51.063Z,3.05
2023-04-22T10:47:28.427Z,2.42
2023-04-22T10:50:10.741Z,2.25
2023-04-22T10:52:38.517Z,1.50
2023-04-22T10:55:05.889Z,3.65
2023-04-22T10:57:43.828Z,2.00
2023-04-22T11:00:23.396Z,4.20
2023-04-22T11:02:55.749Z,2.10
2023-04-22T11:05:26.295Z,3.93
2023-04-22T11:07:55.121Z,2.72
2023-04-22T11:10:35.503Z,1.60
2023-04-22T11:13:03.024Z,1.85
2023-04-22T11:15:31.650Z,1.40
2023-04-22T11:17:59.231Z,3.00
2023-04-22T11:20:29.195Z,1.27
2023-04-22T11:22:59.327Z,2.20
2023-04-22T11:25:27.341Z,6.38
2023-04-22T11:27:55.477Z,2.95
2023-04-22T11:30:23.828Z,4.35
2023-04-22T11:32:52.095Z,2.95
2023-04-22T11:35:20.919Z,3.22
2023-04-22T11:37:50.077Z,10.20
2023-04-22T11:40:30.538Z,3.28
2023-04-22T11:42:59.561Z,3.88
2023-04-22T11:45:27.547Z,3.67
2023-04-22T11:47:55.359Z,3.47
2023-04-22T11:50:24.231Z,9.07
2023-04-22T11:52:52.819Z,2.63
2023-04-22T11:55:23.169Z,4.60
2023-04-22T11:57:55.258Z,1.98
2023-04-22T12:00:22.927Z,2.17
2023-04-22T12:02:57.532Z,3.50
2023-04-22T12:05:38.521Z,2.05
2023-04-22T12:08:10.052Z,1.73
2023-04-22T12:10:41.765Z,2.05
2023-04-22T12:13:09.577Z,0.95
2023-04-22T12:15:40.703Z,1.38
2023-04-22T12:18:08.322Z,3.03
2023-04-22T12:20:36.148Z,2.78
2023-04-22T12:23:04.353Z,5.80
2023-04-22T12:25:33.789Z,3.47
2023-04-22T12:28:01.352Z,8.23
2023-04-22T12:30:28.685Z,3.92
2023-04-22T12:32:56.267Z,2.22
2023-04-22T12:35:23.507Z,2.88
2023-04-22T12:37:51.941Z,2.35
2023-04-22T12:40:19.972Z,1.17
2023-04-22T12:42:47.209Z,8.48
2023-04-22T12:45:14.441Z,1.95
2023-04-22T12:47:41.602Z,4.15
2023-04-22T12:50:08.938Z,5.30
2023-04-22T12:52:36.464Z,2.33
2023-04-22T12:55:04.793Z,1.10
2023-04-22T12:57:31.994Z,4.63
2023-04-22T13:00:02.151Z,1.73
2023-04-22T13:02:29.440Z,1.42
2023-04-22T13:04:56.921Z,2.88
2023-04-22T13:07:24.106Z,1.65
2023-04-22T13:09:51.605Z,2.03
2023-04-22T13:12:18.776Z,3.53
2023-04-22T13:14:46.020Z,4.72
2023-04-22T13:17:13.216Z,1.00
2023-04-22T13:19:41.001Z,1.00
2023-04-22T13:22:08.292Z,3.53
2023-04-22T13:24:35.505Z,2.08
2023-04-22T13:27:03.036Z,3.70
2023-04-22T13:29:30.171Z,0.70
2023-04-22T13:31:57.373Z,1.10
2023-04-22T13:34:24.560Z,0.70
2023-04-22T13:36:51.922Z,0.82
2023-04-22T13:39:19.156Z,1.05
2023-04-22T13:41:46.611Z,0.73
2023-04-22T13:44:14.505Z,0.85
2023-04-22T13:46:42.061Z,0.60
2023-04-22T13:49:09.318Z,1.17
2023-04-22T13:51:40.128Z,3.00
2023-04-22T13:54:07.543Z,1.00
2023-04-22T13:56:34.752Z,2.00
2023-04-22T13:59:01.913Z,2.80
2023-04-22T14:01:29.172Z,0.55
2023-04-22T14:03:56.434Z,1.92
2023-04-22T14:06:23.817Z,2.50
2023-04-22T14:08:51.053Z,1.15
2023-04-22T14:11:18.303Z,2.38
2023-04-22T14:13:46.529Z,4.43
2023-04-22T14:16:13.831Z,1.83
2023-04-22T14:18:41.798Z,1.27
2023-04-22T14:21:09.726Z,1.45
2023-04-22T14:23:37.785Z,5.47
2023-04-22T14:26:05.521Z,1.85
2023-04-22T14:28:32.850Z,1.73
2023-04-22T14:31:00.690Z,1.05
2023-04-22T14:33:28.056Z,8.15
2023-04-22T14:35:55.695Z,1.63
2023-04-22T14:38:23.172Z,0.85
2023-04-22T14:40:50.773Z,1.45
2023-04-22T14:43:18.482Z,1.20
2023-04-22T14:45:46.569Z,3.15
2023-04-22T14:48:13.895Z,2.70
2023-04-22T14:50:41.293Z,2.20
2023-04-22T14:53:08.888Z,1.40
2023-04-22T14:55:36.264Z,1.58
2023-04-22T14:58:03.494Z,1.35
2023-04-22T15:00:30.911Z,0.70
2023-04-22T15:02:58.465Z,1.20
2023-04-22T15:05:25.924Z,3.03
2023-04-22T15:07:53.322Z,1.75
2023-04-22T15:10:21.009Z,3.13
2023-04-22T15:12:48.166Z,3.03
2023-04-22T15:15:16.842Z,7.90
2023-04-22T15:17:44.336Z,4.40
2023-04-22T15:20:12.209Z,3.13
2023-04-22T15:22:41.160Z,2.13
2023-04-22T15:25:09.745Z,5.03
2023-04-22T15:27:37.645Z,3.80
2023-04-22T15:30:05.879Z,3.33
2023-04-22T15:32:35.786Z,0.88
2023-04-22T15:35:03.126Z,1.25
2023-04-22T15:37:30.339Z,1.55
2023-04-22T15:39:57.490Z,1.17
2023-04-22T15:42:25.296Z,1.73
2023-04-22T15:44:52.456Z,1.00
2023-04-22T15:47:19.650Z,7.20
2023-04-22T15:49:46.922Z,10.13
2023-04-22T15:52:14.298Z,1.30
2023-04-22T15:54:41.552Z,1.77
2023-04-22T15:57:08.930Z,0.88
2023-04-22T15:59:36.067Z,2.60
2023-04-22T16:02:03.334Z,1.05
2023-04-22T16:04:30.718Z,0.90
2023-04-22T16:06:59.278Z,2.30
2023-04-22T16:09:26.483Z,1.23
2023-04-22T16:11:55.967Z,1.35
2023-04-22T16:14:23.171Z,2.33
2023-04-22T16:16:51.817Z,3.05
2023-04-22T16:19:22.445Z,1.27
2023-04-22T16:21:49.670Z,4.25
2023-04-22T16:24:16.897Z,1.63
2023-04-22T16:26:44.056Z,1.10
2023-04-22T16:29:11.204Z,1.55
2023-04-22T16:31:38.819Z,4.60
2023-04-22T16:34:06.010Z,2.25
2023-04-22T16:36:33.307Z,1.08
2023-04-22T16:39:01.606Z,3.63
2023-04-22T16:41:29.069Z,1.35
2023-04-22T16:43:56.450Z,1.92
2023-04-22T16:46:23.877Z,3.20
2023-04-22T16:48:51.213Z,2.50
2023-04-22T16:51:18.397Z,1.40
2023-04-22T16:53:45.803Z,1.35
2023-04-22T16:56:12.947Z,1.25
2023-04-22T16:58:40.349Z,2.78
2023-04-22T17:01:07.512Z,1.35
2023-04-22T17:03:34.863Z,1.38
2023-04-22T17:06:02.120Z,1.42
2023-04-22T17:08:29.377Z,1.02
2023-04-22T17:10:56.887Z,3.95
2023-04-22T17:13:24.261Z,2.85
2023-04-22T17:15:51.512Z,3.47
2023-04-22T17:18:18.717Z,3.95
2023-04-22T17:20:45.868Z,3.83
2023-04-22T17:23:13.036Z,1.50
2023-04-22T17:25:40.259Z,4.13
2023-04-22T17:28:07.537Z,1.40
2023-04-22T17:30:36.082Z,2.00
2023-04-22T17:33:03.414Z,3.13
2023-04-22T17:35:30.644Z,2.47
2023-04-22T17:37:57.952Z,3.78
2023-04-22T17:40:25.168Z,4.22
2023-04-22T17:42:52.308Z,4.13
2023-04-22T17:45:19.543Z,7.78
2023-04-22T17:47:48.838Z,3.17
2023-04-22T17:50:16.256Z,2.97
2023-04-22T17:52:43.832Z,4.72
2023-04-22T17:55:11.399Z,3.70
2023-04-22T17:57:38.621Z,2.45
2023-04-22T18:00:06.224Z,3.58
2023-04-22T18:02:33.496Z,3.90
2023-04-22T18:05:01.154Z,5.30
2023-04-22T18:07:28.334Z,6.25
2023-04-22T18:09:55.651Z,3.47
2023-04-22T18:12:27.604Z,3.60
2023-04-22T18:14:56.056Z,4.18
2023-04-22T18:17:25.301Z,5.25
2023-04-22T18:20:02.783Z,4.28
2023-04-22T18:22:37.596Z,2.83
2023-04-22T18:25:04.900Z,7.53
2023-04-22T18:27:32.161Z,9.43
2023-04-22T18:29:59.440Z,7.93
2023-04-22T18:32:26.670Z,13.68
2023-04-22T18:34:53.952Z,13.07
2023-04-22T18:37:21.743Z,9.07
2023-04-22T18:39:48.974Z,7.63
2023-04-22T18:42:16.196Z,8.55
2023-04-22T18:44:43.643Z,8.05
2023-04-22T18:47:10.983Z,9.48
2023-04-22T18:49:38.175Z,14.60
2023-04-22T18:52:05.341Z,9.02
2023-04-22T18:54:32.541Z,6.97
2023-04-22T18:56:59.666Z,11.23
2023-04-22T18:59:26.937Z,13.43
2023-04-22T19:01:54.263Z,13.63
2023-04-22T19:04:21.966Z,9.80
2023-04-22T19:06:49.150Z,9.63
2023-04-22T19:09:16.928Z,9.85
2023-04-22T19:11:44.132Z,8.27
2023-04-22T19:14:12.200Z,10.60
2023-04-22T19:16:39.362Z,8.80
2023-04-22T19:19:06.699Z,9.32
2023-04-22T19:21:33.920Z,5.00
2023-04-22T19:24:01.114Z,3.67
2023-04-22T19:26:29.081Z,3.47
2023-04-22T19:28:56.268Z,6.55
2023-04-22T19:31:23.537Z,5.90
2023-04-22T19:33:51.193Z,8.05
2023-04-22T19:36:18.359Z,11.30
2023-04-22T19:38:45.728Z,9.93
2023-04-22T19:41:13.832Z,12.40
2023-04-22T19:43:41.345Z,15.70
2023-04-22T19:46:08.557Z,11.50
2023-04-22T19:48:36.446Z,16.33
2023-04-22T19:51:04.425Z,21.90
2023-04-22T19:53:31.892Z,34.00
2023-04-22T19:55:59.161Z,8.48
2023-04-22T19:58:28.106Z,8.60
2023-04-22T20:00:55.378Z,6.32
2023-04-22T20:03:23.116Z,8.27
2023-04-22T20:05:50.833Z,7.53
2023-04-22T20:08:19.917Z,5.25
2023-04-22T20:10:49.711Z,4.88
2023-04-22T20:13:17.555Z,5.07
2023-04-22T20:15:44.901Z,11.77
2023-04-22T20:18:12.404Z,8.55
2023-04-22T20:20:48.176Z,9.15
2023-04-22T20:23:15.621Z,3.50
2023-04-22T20:25:47.183Z,4.05
2023-04-22T20:28:14.668Z,3.63
2023-04-22T20:30:42.070Z,2.85
2023-04-22T20:33:12.056Z,7.38
2023-04-22T20:35:40.349Z,6.45
2023-04-22T20:38:08.914Z,3.75
2023-04-22T20:40:36.438Z,3.20
2023-04-22T20:43:03.611Z,4.45
2023-04-22T20:45:31.227Z,3.92
2023-04-22T20:47:58.515Z,4.53
2023-04-22T20:50:25.864Z,5.30
2023-04-22T20:52:53.286Z,4.20
2023-04-22T20:55:21.199Z,7.18
2023-04-22T20:57:48.404Z,3.33
2023-04-22T21:00:16.127Z,2.72
2023-04-22T21:02:44.316Z,5.05
2023-04-22T21:05:12.048Z,5.57
2023-04-22T21:07:40.019Z,3.38
2023-04-22T21:10:07.637Z,3.92
2023-04-22T21:12:34.979Z,4.38
2023-04-22T21:15:02.404Z,7.07
2023-04-22T21:17:31.666Z,6.13
2023-04-22T21:19:59.076Z,3.45
2023-04-22T21:22:27.114Z,4.32
2023-04-22T21:24:54.398Z,5.40
2023-04-22T21:27:22.529Z,5.38
2023-04-22T21:29:50.278Z,3.78
2023-04-22T21:32:20.269Z,3.95
2023-04-22T21:34:47.665Z,3.45
2023-04-22T21:37:14.834Z,3.90
2023-04-22T21:39:42.257Z,2.97
2023-04-22T21:42:09.470Z,4.32
2023-04-22T21:44:37.421Z,5.78
2023-04-22T21:47:07.899Z,6.35
2023-04-22T21:49:35.083Z,8.40
2023-04-22T21:52:02.240Z,3.22
2023-04-22T21:54:29.565Z,4.68
2023-04-22T21:56:57.710Z,3.20
2023-04-22T21:59:24.878Z,3.47
2023-04-22T22:01:52.415Z,4.07
2023-04-22T22:04:19.696Z,2.65
2023-04-22T22:06:46.936Z,6.10
2023-04-22T22:09:14.263Z,3.55
2023-04-22T22:11:41.491Z,3.78
2023-04-22T22:14:08.697Z,2.90
2023-04-22T22:16:36.085Z,2.75
2023-04-22T22:19:04.747Z,4.40
2023-04-22T22:21:32.986Z,3.40
2023-04-22T22:24:00.468Z,4.03
2023-04-22T22:26:28.062Z,4.00
2023-04-22T22:28:55.659Z,4.70
2023-04-22T22:31:22.909Z,3.55
2023-04-22T22:33:50.243Z,4.75
2023-04-22T22:36:17.436Z,3.17
2023-04-22T22:38:44.554Z,2.65
2023-04-22T22:41:11.763Z,5.40
2023-04-22T22:43:40.246Z,3.70
2023-04-22T22:46:07.401Z,6.15
2023-04-22T22:48:34.688Z,3.95
2023-04-22T22:51:01.817Z,5.00
2023-04-22T22:53:29.052Z,6.88
2023-04-22T22:55:56.236Z,4.88
2023-04-22T22:58:23.424Z,6.03
2023-04-22T23:00:50.602Z,4.63
2023-04-22T23:03:19.691Z,4.05
2023-04-22T23:05:47.267Z,4.38
2023-04-22T23:08:14.803Z,6.30
2023-04-22T23:10:42.067Z,4.68
2023-04-22T23:13:09.195Z,4.82
2023-04-22T23:15:36.584Z,6.82
2023-04-22T23:18:04.063Z,8.80
2023-04-22T23:20:31.363Z,4.70
2023-04-22T23:22:58.686Z,5.03
2023-04-22T23:25:25.994Z,6.40
2023-04-22T23:27:55.333Z,7.80
2023-04-22T23:30:22.942Z,5.85
2023-04-22T23:32:51.806Z,6.57
2023-04-22T23:35:20.108Z,3.92
2023-04-22T23:37:47.685Z,3.90
2023-04-22T23:40:14.902Z,6.70
2023-04-22T23:42:42.070Z,3.10
2023-04-22T23:45:09.646Z,7.38
2023-04-22T23:47:36.876Z,8.05
2023-04-22T23:50:04.927Z,3.35
2023-04-22T23:52:32.347Z,3.78
2023-04-22T23:54:59.659Z,3.88
2023-04-22T23:57:26.916Z,5.07
2023-04-22T23:59:54.259Z,4.03
